sensor_id;sensor_type;location;lat;lon;timestamp;temperature;humidity
12811;DHT22;6470;47.654;7.896;2023-03-08T00:01:18;0.20;99.90
12811;DHT22;6470;47.654;7.896;2023-03-08T00:03:44;-0.30;99.90
12811;DHT22;6470;47.654;7.896;2023-03-08T00:06:13;3.00;99.90
12811;DHT22;6470;47.654;7.896;2023-03-08T00:08:39;2.70;99.90
12811;DHT22;6470;47.654;7.896;2023-03-08T00:11:06;2.70;99.90
12811;DHT22;6470;47.654;7.896;2023-03-08T00:13:32;2.60;99.90
12811;DHT22;6470;47.654;7.896;2023-03-08T00:15:59;2.40;99.90
12811;DHT22;6470;47.654;7.896;2023-03-08T00:18:25;2.70;99.90
12811;DHT22;6470;47.654;7.896;2023-03-08T00:21:02;3.10;99.90
12811;DHT22;6470;47.654;7.896;2023-03-08T00:23:28;3.30;99.90
12811;DHT22;6470;47.654;7.896;2023-03-08T00:25:54;2.90;99.90
12811;DHT22;6470;47.654;7.896;2023-03-08T00:28:20;3.20;99.90
12811;DHT22;6470;47.654;7.896;2023-03-08T00:30:54;3.20;99.90
12811;DHT22;6470;47.654;7.896;2023-03-08T00:33:20;3.90;99.90
12811;DHT22;6470;47.654;7.896;2023-03-08T00:35:57;3.60;99.90
12811;DHT22;6470;47.654;7.896;2023-03-08T00:38:23;3.40;99.90
12811;DHT22;6470;47.654;7.896;2023-03-08T00:40:48;3.30;99.90
12811;DHT22;6470;47.654;7.896;2023-03-08T00:43:14;3.90;99.90
12811;DHT22;6470;47.654;7.896;2023-03-08T00:45:39;3.60;99.90
12811;DHT22;6470;47.654;7.896;2023-03-08T00:48:05;3.30;99.90
12811;DHT22;6470;47.654;7.896;2023-03-08T00:50:31;2.60;99.90
12811;DHT22;6470;47.654;7.896;2023-03-08T00:52:57;3.00;99.90
12811;DHT22;6470;47.654;7.896;2023-03-08T00:55:22;3.80;99.90
12811;DHT22;6470;47.654;7.896;2023-03-08T00:57:48;3.50;99.90
12811;DHT22;6470;47.654;7.896;2023-03-08T01:00:14;3.50;99.90
12811;DHT22;6470;47.654;7.896;2023-03-08T01:02:40;3.60;99.90
12811;DHT22;6470;47.654;7.896;2023-03-08T01:05:07;0.90;99.90
12811;DHT22;6470;47.654;7.896;2023-03-08T01:07:33;3.60;99.90
12811;DHT22;6470;47.654;7.896;2023-03-08T01:09:59;2.90;99.90
12811;DHT22;6470;47.654;7.896;2023-03-08T01:12:24;3.60;99.90
12811;DHT22;6470;47.654;7.896;2023-03-08T01:14:51;2.80;99.90
12811;DHT22;6470;47.654;7.896;2023-03-08T01:17:17;2.20;99.90
12811;DHT22;6470;47.654;7.896;2023-03-08T01:22:09;2.80;99.90
12811;DHT22;6470;47.654;7.896;2023-03-08T01:27:01;2.60;99.90
12811;DHT22;6470;47.654;7.896;2023-03-08T01:29:27;2.90;99.90
12811;DHT22;6470;47.654;7.896;2023-03-08T01:31:53;2.50;99.90
12811;DHT22;6470;47.654;7.896;2023-03-08T01:34:19;0.00;99.90
12811;DHT22;6470;47.654;7.896;2023-03-08T01:36:45;0.00;99.90
12811;DHT22;6470;47.654;7.896;2023-03-08T01:39:11;-0.10;99.90
12811;DHT22;6470;47.654;7.896;2023-03-08T01:44:03;2.60;99.90
12811;DHT22;6470;47.654;7.896;2023-03-08T01:51:40;1.80;99.90
12811;DHT22;6470;47.654;7.896;2023-03-08T01:57:34;2.80;99.90
12811;DHT22;6470;47.654;7.896;2023-03-08T02:02:39;2.60;99.90
12811;DHT22;6470;47.654;7.896;2023-03-08T02:05:06;2.30;99.90
12811;DHT22;6470;47.654;7.896;2023-03-08T02:09:58;2.70;99.90
12811;DHT22;6470;47.654;7.896;2023-03-08T02:12:24;1.80;99.90
12811;DHT22;6470;47.654;7.896;2023-03-08T02:14:50;2.30;99.90
12811;DHT22;6470;47.654;7.896;2023-03-08T02:17:17;-0.70;99.90
12811;DHT22;6470;47.654;7.896;2023-03-08T02:19:56;2.20;99.90
12811;DHT22;6470;47.654;7.896;2023-03-08T02:22:24;2.60;99.90
12811;DHT22;6470;47.654;7.896;2023-03-08T02:24:50;-1.00;99.90
12811;DHT22;6470;47.654;7.896;2023-03-08T02:27:20;2.10;99.90
12811;DHT22;6470;47.654;7.896;2023-03-08T02:32:12;2.50;99.90
12811;DHT22;6470;47.654;7.896;2023-03-08T02:37:04;2.10;99.90
12811;DHT22;6470;47.654;7.896;2023-03-08T02:41:56;2.60;99.90
12811;DHT22;6470;47.654;7.896;2023-03-08T02:46:47;2.20;99.90
12811;DHT22;6470;47.654;7.896;2023-03-08T02:49:13;2.80;99.90
12811;DHT22;6470;47.654;7.896;2023-03-08T02:51:39;2.80;99.90
12811;DHT22;6470;47.654;7.896;2023-03-08T02:57:26;2.10;99.90
12811;DHT22;6470;47.654;7.896;2023-03-08T03:02:18;2.40;99.90
12811;DHT22;6470;47.654;7.896;2023-03-08T03:04:44;2.80;99.90
12811;DHT22;6470;47.654;7.896;2023-03-08T03:07:09;2.80;99.90
12811;DHT22;6470;47.654;7.896;2023-03-08T03:09:35;2.20;99.90
12811;DHT22;6470;47.654;7.896;2023-03-08T03:12:01;2.40;99.90
12811;DHT22;6470;47.654;7.896;2023-03-08T03:14:27;2.30;99.90
12811;DHT22;6470;47.654;7.896;2023-03-08T03:16:53;2.40;99.90
12811;DHT22;6470;47.654;7.896;2023-03-08T03:19:19;2.40;99.90
12811;DHT22;6470;47.654;7.896;2023-03-08T03:21:44;1.90;99.90
12811;DHT22;6470;47.654;7.896;2023-03-08T03:24:10;2.50;99.90
12811;DHT22;6470;47.654;7.896;2023-03-08T03:26:36;-1.60;99.90
12811;DHT22;6470;47.654;7.896;2023-03-08T03:29:02;2.40;99.90
12811;DHT22;6470;47.654;7.896;2023-03-08T03:36:21;2.50;99.90
12811;DHT22;6470;47.654;7.896;2023-03-08T03:38:47;2.60;99.90
12811;DHT22;6470;47.654;7.896;2023-03-08T03:41:18;2.60;99.90
12811;DHT22;6470;47.654;7.896;2023-03-08T03:43:45;1.40;99.90
12811;DHT22;6470;47.654;7.896;2023-03-08T03:46:14;2.30;99.90
12811;DHT22;6470;47.654;7.896;2023-03-08T03:48:40;2.50;99.90
12811;DHT22;6470;47.654;7.896;2023-03-08T03:51:13;1.40;99.90
12811;DHT22;6470;47.654;7.896;2023-03-08T03:53:39;2.10;99.90
12811;DHT22;6470;47.654;7.896;2023-03-08T03:59:27;2.20;99.90
12811;DHT22;6470;47.654;7.896;2023-03-08T04:01:53;2.50;99.90
12811;DHT22;6470;47.654;7.896;2023-03-08T04:04:19;2.50;99.90
12811;DHT22;6470;47.654;7.896;2023-03-08T04:06:44;2.90;99.90
12811;DHT22;6470;47.654;7.896;2023-03-08T04:09:15;1.40;99.90
12811;DHT22;6470;47.654;7.896;2023-03-08T04:11:42;2.40;99.90
12811;DHT22;6470;47.654;7.896;2023-03-08T04:14:08;2.80;99.90
12811;DHT22;6470;47.654;7.896;2023-03-08T04:16:36;2.60;99.90
12811;DHT22;6470;47.654;7.896;2023-03-08T04:19:04;2.20;99.90
12811;DHT22;6470;47.654;7.896;2023-03-08T04:21:31;2.80;99.90
12811;DHT22;6470;47.654;7.896;2023-03-08T04:23:57;2.90;99.90
12811;DHT22;6470;47.654;7.896;2023-03-08T04:26:23;2.60;99.90
12811;DHT22;6470;47.654;7.896;2023-03-08T04:28:49;2.60;99.90
12811;DHT22;6470;47.654;7.896;2023-03-08T04:31:16;2.60;99.90
12811;DHT22;6470;47.654;7.896;2023-03-08T04:33:43;-1.00;99.90
12811;DHT22;6470;47.654;7.896;2023-03-08T04:36:09;2.50;99.90
12811;DHT22;6470;47.654;7.896;2023-03-08T04:38:35;2.60;99.90
12811;DHT22;6470;47.654;7.896;2023-03-08T04:41:00;1.90;99.90
12811;DHT22;6470;47.654;7.896;2023-03-08T04:43:27;2.60;99.90
12811;DHT22;6470;47.654;7.896;2023-03-08T04:49:15;2.50;99.90
12811;DHT22;6470;47.654;7.896;2023-03-08T04:51:41;1.70;99.90
12811;DHT22;6470;47.654;7.896;2023-03-08T04:57:28;1.90;99.90
12811;DHT22;6470;47.654;7.896;2023-03-08T04:59:54;2.10;99.90
12811;DHT22;6470;47.654;7.896;2023-03-08T05:02:21;2.20;99.90
12811;DHT22;6470;47.654;7.896;2023-03-08T05:04:47;2.60;99.90
12811;DHT22;6470;47.654;7.896;2023-03-08T05:07:13;2.40;99.90
12811;DHT22;6470;47.654;7.896;2023-03-08T05:09:39;1.80;99.90
12811;DHT22;6470;47.654;7.896;2023-03-08T05:12:05;3.00;99.90
12811;DHT22;6470;47.654;7.896;2023-03-08T05:14:30;-0.80;99.90
12811;DHT22;6470;47.654;7.896;2023-03-08T05:16:56;2.20;99.90
12811;DHT22;6470;47.654;7.896;2023-03-08T05:19:22;1.50;99.90
12811;DHT22;6470;47.654;7.896;2023-03-08T05:21:48;-0.50;99.90
12811;DHT22;6470;47.654;7.896;2023-03-08T05:24:14;2.30;99.90
12811;DHT22;6470;47.654;7.896;2023-03-08T05:26:40;2.00;99.90
12811;DHT22;6470;47.654;7.896;2023-03-08T05:29:05;2.50;99.90
12811;DHT22;6470;47.654;7.896;2023-03-08T05:31:32;2.30;99.90
12811;DHT22;6470;47.654;7.896;2023-03-08T05:33:58;3.00;99.90
12811;DHT22;6470;47.654;7.896;2023-03-08T05:36:24;-0.40;99.90
12811;DHT22;6470;47.654;7.896;2023-03-08T05:38:53;2.90;99.90
12811;DHT22;6470;47.654;7.896;2023-03-08T05:41:19;2.60;99.90
12811;DHT22;6470;47.654;7.896;2023-03-08T05:43:45;2.90;99.90
12811;DHT22;6470;47.654;7.896;2023-03-08T05:46:13;3.00;99.90
12811;DHT22;6470;47.654;7.896;2023-03-08T05:48:39;2.90;99.90
12811;DHT22;6470;47.654;7.896;2023-03-08T05:51:11;2.70;99.90
12811;DHT22;6470;47.654;7.896;2023-03-08T05:59:25;2.90;99.90
12811;DHT22;6470;47.654;7.896;2023-03-08T06:01:51;2.80;99.90
12811;DHT22;6470;47.654;7.896;2023-03-08T06:04:16;2.00;99.90
12811;DHT22;6470;47.654;7.896;2023-03-08T06:06:42;2.50;99.90
12811;DHT22;6470;47.654;7.896;2023-03-08T06:09:08;2.30;99.90
12811;DHT22;6470;47.654;7.896;2023-03-08T06:11:34;2.70;99.90
12811;DHT22;6470;47.654;7.896;2023-03-08T06:13:59;2.10;99.90
12811;DHT22;6470;47.654;7.896;2023-03-08T06:16:25;0.00;99.90
12811;DHT22;6470;47.654;7.896;2023-03-08T06:18:51;2.30;99.90
12811;DHT22;6470;47.654;7.896;2023-03-08T06:21:18;2.70;99.90
12811;DHT22;6470;47.654;7.896;2023-03-08T06:23:46;2.60;99.90
12811;DHT22;6470;47.654;7.896;2023-03-08T06:26:12;2.70;99.90
12811;DHT22;6470;47.654;7.896;2023-03-08T06:28:38;3.00;99.90
12811;DHT22;6470;47.654;7.896;2023-03-08T06:31:05;2.50;99.90
12811;DHT22;6470;47.654;7.896;2023-03-08T06:33:32;2.70;99.90
12811;DHT22;6470;47.654;7.896;2023-03-08T06:38:36;2.80;99.90
12811;DHT22;6470;47.654;7.896;2023-03-08T06:41:03;2.80;99.90
12811;DHT22;6470;47.654;7.896;2023-03-08T06:43:29;3.60;99.90
12811;DHT22;6470;47.654;7.896;2023-03-08T06:45:55;3.40;99.90
12811;DHT22;6470;47.654;7.896;2023-03-08T06:48:21;3.30;99.90
12811;DHT22;6470;47.654;7.896;2023-03-08T06:50:47;3.30;99.90
12811;DHT22;6470;47.654;7.896;2023-03-08T06:53:12;3.30;99.90
12811;DHT22;6470;47.654;7.896;2023-03-08T06:55:39;3.60;99.90
12811;DHT22;6470;47.654;7.896;2023-03-08T06:58:06;3.70;99.90
12811;DHT22;6470;47.654;7.896;2023-03-08T07:00:32;3.60;99.90
12811;DHT22;6470;47.654;7.896;2023-03-08T07:02:58;4.20;99.90
12811;DHT22;6470;47.654;7.896;2023-03-08T07:05:24;3.50;99.90
12811;DHT22;6470;47.654;7.896;2023-03-08T07:07:50;3.90;99.90
12811;DHT22;6470;47.654;7.896;2023-03-08T07:10:17;4.10;99.90
12811;DHT22;6470;47.654;7.896;2023-03-08T07:12:44;3.80;99.90
12811;DHT22;6470;47.654;7.896;2023-03-08T07:15:15;3.70;99.90
12811;DHT22;6470;47.654;7.896;2023-03-08T07:17:44;1.70;99.90
12811;DHT22;6470;47.654;7.896;2023-03-08T07:20:12;4.30;99.90
12811;DHT22;6470;47.654;7.896;2023-03-08T07:22:41;3.80;99.90
12811;DHT22;6470;47.654;7.896;2023-03-08T07:25:10;1.70;99.90
12811;DHT22;6470;47.654;7.896;2023-03-08T07:27:36;4.50;99.90
12811;DHT22;6470;47.654;7.896;2023-03-08T07:30:02;4.00;99.90
12811;DHT22;6470;47.654;7.896;2023-03-08T07:32:28;4.60;99.90
12811;DHT22;6470;47.654;7.896;2023-03-08T07:34:54;4.80;99.90
12811;DHT22;6470;47.654;7.896;2023-03-08T07:37:20;4.40;99.90
12811;DHT22;6470;47.654;7.896;2023-03-08T07:39:46;5.10;99.90
12811;DHT22;6470;47.654;7.896;2023-03-08T07:42:12;5.20;99.90
12811;DHT22;6470;47.654;7.896;2023-03-08T07:44:38;4.40;99.90
12811;DHT22;6470;47.654;7.896;2023-03-08T07:50:26;5.30;99.90
12811;DHT22;6470;47.654;7.896;2023-03-08T07:52:52;5.00;99.90
12811;DHT22;6470;47.654;7.896;2023-03-08T07:55:17;5.50;99.90
12811;DHT22;6470;47.654;7.896;2023-03-08T08:00:10;5.20;99.90
12811;DHT22;6470;47.654;7.896;2023-03-08T08:02:36;4.80;99.90
12811;DHT22;6470;47.654;7.896;2023-03-08T08:05:02;5.10;99.90
12811;DHT22;6470;47.654;7.896;2023-03-08T08:07:29;5.10;99.90
12811;DHT22;6470;47.654;7.896;2023-03-08T08:09:55;2.50;99.90
12811;DHT22;6470;47.654;7.896;2023-03-08T08:12:20;4.80;99.90
12811;DHT22;6470;47.654;7.896;2023-03-08T08:14:51;5.10;99.90
12811;DHT22;6470;47.654;7.896;2023-03-08T08:17:18;4.40;99.90
12811;DHT22;6470;47.654;7.896;2023-03-08T08:19:44;5.50;99.90
12811;DHT22;6470;47.654;7.896;2023-03-08T08:22:09;5.30;99.90
12811;DHT22;6470;47.654;7.896;2023-03-08T08:24:35;5.40;99.90
12811;DHT22;6470;47.654;7.896;2023-03-08T08:30:23;5.20;99.90
12811;DHT22;6470;47.654;7.896;2023-03-08T08:32:48;5.40;99.90
12811;DHT22;6470;47.654;7.896;2023-03-08T08:35:14;5.80;99.90
12811;DHT22;6470;47.654;7.896;2023-03-08T08:37:40;3.00;99.90
12811;DHT22;6470;47.654;7.896;2023-03-08T08:40:06;5.70;99.90
12811;DHT22;6470;47.654;7.896;2023-03-08T08:42:32;5.80;99.90
12811;DHT22;6470;47.654;7.896;2023-03-08T08:44:58;5.80;99.90
12811;DHT22;6470;47.654;7.896;2023-03-08T08:47:24;6.20;99.90
12811;DHT22;6470;47.654;7.896;2023-03-08T08:49:50;5.60;99.90
12811;DHT22;6470;47.654;7.896;2023-03-08T08:52:16;5.80;99.90
12811;DHT22;6470;47.654;7.896;2023-03-08T08:58:04;6.50;99.90
12811;DHT22;6470;47.654;7.896;2023-03-08T09:00:31;6.70;99.90
12811;DHT22;6470;47.654;7.896;2023-03-08T09:02:58;7.40;99.90
12811;DHT22;6470;47.654;7.896;2023-03-08T09:05:24;7.00;99.90
12811;DHT22;6470;47.654;7.896;2023-03-08T09:07:53;6.90;99.90
12811;DHT22;6470;47.654;7.896;2023-03-08T09:10:19;6.90;99.90
12811;DHT22;6470;47.654;7.896;2023-03-08T09:12:45;6.60;99.90
12811;DHT22;6470;47.654;7.896;2023-03-08T09:15:11;6.70;99.90
12811;DHT22;6470;47.654;7.896;2023-03-08T09:17:38;6.40;99.90
12811;DHT22;6470;47.654;7.896;2023-03-08T09:20:04;7.10;99.90
12811;DHT22;6470;47.654;7.896;2023-03-08T09:22:31;7.30;99.90
12811;DHT22;6470;47.654;7.896;2023-03-08T09:27:23;6.90;99.90
12811;DHT22;6470;47.654;7.896;2023-03-08T09:29:49;7.20;99.90
12811;DHT22;6470;47.654;7.896;2023-03-08T09:32:14;7.30;99.90
12811;DHT22;6470;47.654;7.896;2023-03-08T09:34:40;7.60;99.90
12811;DHT22;6470;47.654;7.896;2023-03-08T09:37:06;7.00;99.90
12811;DHT22;6470;47.654;7.896;2023-03-08T09:39:33;7.10;99.90
12811;DHT22;6470;47.654;7.896;2023-03-08T09:42:00;6.60;99.90
12811;DHT22;6470;47.654;7.896;2023-03-08T09:52:45;6.40;99.90
12811;DHT22;6470;47.654;7.896;2023-03-08T09:55:24;7.60;99.90
12811;DHT22;6470;47.654;7.896;2023-03-08T09:57:59;7.40;99.90
12811;DHT22;6470;47.654;7.896;2023-03-08T10:00:36;7.60;99.90
12811;DHT22;6470;47.654;7.896;2023-03-08T10:03:39;5.00;99.90
12811;DHT22;6470;47.654;7.896;2023-03-08T10:06:23;5.60;99.90
12811;DHT22;6470;47.654;7.896;2023-03-08T10:09:06;7.60;99.90
12811;DHT22;6470;47.654;7.896;2023-03-08T10:11:44;7.50;99.90
12811;DHT22;6470;47.654;7.896;2023-03-08T10:14:19;7.60;99.90
12811;DHT22;6470;47.654;7.896;2023-03-08T10:16:51;7.40;99.90
12811;DHT22;6470;47.654;7.896;2023-03-08T10:19:30;7.70;99.90
12811;DHT22;6470;47.654;7.896;2023-03-08T10:22:02;8.10;99.90
12811;DHT22;6470;47.654;7.896;2023-03-08T10:27:23;7.40;99.90
12811;DHT22;6470;47.654;7.896;2023-03-08T10:29:51;7.30;99.90
12811;DHT22;6470;47.654;7.896;2023-03-08T10:32:18;7.60;99.90
12811;DHT22;6470;47.654;7.896;2023-03-08T10:34:44;7.20;99.90
12811;DHT22;6470;47.654;7.896;2023-03-08T10:37:10;6.60;99.90
12811;DHT22;6470;47.654;7.896;2023-03-08T10:39:36;7.20;99.90
12811;DHT22;6470;47.654;7.896;2023-03-08T10:42:15;7.40;99.90
12811;DHT22;6470;47.654;7.896;2023-03-08T10:44:51;7.30;99.90
12811;DHT22;6470;47.654;7.896;2023-03-08T10:47:28;7.40;99.90
12811;DHT22;6470;47.654;7.896;2023-03-08T10:50:11;7.40;99.90
12811;DHT22;6470;47.654;7.896;2023-03-08T10:52:38;7.90;99.90
12811;DHT22;6470;47.654;7.896;2023-03-08T10:55:15;7.50;99.90
12811;DHT22;6470;47.654;7.896;2023-03-08T10:57:58;7.80;99.90
12811;DHT22;6470;47.654;7.896;2023-03-08T11:00:35;8.00;99.90
12811;DHT22;6470;47.654;7.896;2023-03-08T11:03:22;7.80;99.90
12811;DHT22;6470;47.654;7.896;2023-03-08T11:08:27;8.30;99.90
12811;DHT22;6470;47.654;7.896;2023-03-08T11:11:22;7.70;99.90
12811;DHT22;6470;47.654;7.896;2023-03-08T11:13:50;7.30;99.90
12811;DHT22;6470;47.654;7.896;2023-03-08T11:16:47;7.80;99.90
12811;DHT22;6470;47.654;7.896;2023-03-08T11:39:17;7.60;99.90
12811;DHT22;6470;47.654;7.896;2023-03-08T11:42:24;8.10;99.90
12811;DHT22;6470;47.654;7.896;2023-03-08T11:50:23;7.80;99.90
12811;DHT22;6470;47.654;7.896;2023-03-08T12:01:38;8.00;99.90
12811;DHT22;6470;47.654;7.896;2023-03-08T12:07:15;7.60;99.90
12811;DHT22;6470;47.654;7.896;2023-03-08T12:09:57;8.00;99.90
12811;DHT22;6470;47.654;7.896;2023-03-08T12:15:18;8.20;99.90
12811;DHT22;6470;47.654;7.896;2023-03-08T12:18:19;8.20;99.90
12811;DHT22;6470;47.654;7.896;2023-03-08T12:20:48;8.10;99.90
12811;DHT22;6470;47.654;7.896;2023-03-08T12:26:09;8.10;99.90
12811;DHT22;6470;47.654;7.896;2023-03-08T12:28:40;8.30;99.90
12811;DHT22;6470;47.654;7.896;2023-03-08T12:31:26;8.30;99.90
12811;DHT22;6470;47.654;7.896;2023-03-08T12:33:54;8.50;99.90
12811;DHT22;6470;47.654;7.896;2023-03-08T12:36:21;8.20;99.90
12811;DHT22;6470;47.654;7.896;2023-03-08T12:38:48;8.30;99.90
12811;DHT22;6470;47.654;7.896;2023-03-08T12:41:28;8.30;99.90
12811;DHT22;6470;47.654;7.896;2023-03-08T12:44:05;8.30;99.90
12811;DHT22;6470;47.654;7.896;2023-03-08T12:49:53;8.20;99.90
12811;DHT22;6470;47.654;7.896;2023-03-08T12:52:26;8.30;99.90
12811;DHT22;6470;47.654;7.896;2023-03-08T12:57:22;8.00;99.90
12811;DHT22;6470;47.654;7.896;2023-03-08T12:59:55;7.80;99.90
12811;DHT22;6470;47.654;7.896;2023-03-08T13:02:30;8.40;99.90
12811;DHT22;6470;47.654;7.896;2023-03-08T13:05:16;8.40;99.90
12811;DHT22;6470;47.654;7.896;2023-03-08T13:13:56;8.50;99.90
12811;DHT22;6470;47.654;7.896;2023-03-08T13:16:33;8.80;99.90
12811;DHT22;6470;47.654;7.896;2023-03-08T13:33:29;8.60;99.90
12811;DHT22;6470;47.654;7.896;2023-03-08T13:36:01;9.00;99.90
12811;DHT22;6470;47.654;7.896;2023-03-08T13:38:30;7.10;99.90
12811;DHT22;6470;47.654;7.896;2023-03-08T13:40:57;8.80;99.90
12811;DHT22;6470;47.654;7.896;2023-03-08T13:43:28;8.80;99.90
12811;DHT22;6470;47.654;7.896;2023-03-08T13:46:01;8.40;99.90
12811;DHT22;6470;47.654;7.896;2023-03-08T13:48:30;7.00;99.90
12811;DHT22;6470;47.654;7.896;2023-03-08T13:50:57;8.60;99.90
12811;DHT22;6470;47.654;7.896;2023-03-08T13:53:27;8.40;99.90
12811;DHT22;6470;47.654;7.896;2023-03-08T13:55:56;8.90;99.90
12811;DHT22;6470;47.654;7.896;2023-03-08T14:01:02;8.90;99.90
12811;DHT22;6470;47.654;7.896;2023-03-08T14:03:30;8.30;99.90
12811;DHT22;6470;47.654;7.896;2023-03-08T14:05:57;8.60;99.90
12811;DHT22;6470;47.654;7.896;2023-03-08T14:08:25;9.10;99.90
12811;DHT22;6470;47.654;7.896;2023-03-08T14:11:03;9.20;99.90
12811;DHT22;6470;47.654;7.896;2023-03-08T14:13:32;8.70;99.90
12811;DHT22;6470;47.654;7.896;2023-03-08T14:16:01;9.00;99.90
12811;DHT22;6470;47.654;7.896;2023-03-08T14:18:36;9.20;99.90
12811;DHT22;6470;47.654;7.896;2023-03-08T14:23:34;8.50;99.90
12811;DHT22;6470;47.654;7.896;2023-03-08T14:26:01;8.60;99.90
12811;DHT22;6470;47.654;7.896;2023-03-08T14:28:39;8.90;99.90
12811;DHT22;6470;47.654;7.896;2023-03-08T14:31:23;9.20;99.90
12811;DHT22;6470;47.654;7.896;2023-03-08T14:34:00;8.90;99.90
12811;DHT22;6470;47.654;7.896;2023-03-08T14:39:51;8.70;99.90
12811;DHT22;6470;47.654;7.896;2023-03-08T14:42:21;9.30;99.90
12811;DHT22;6470;47.654;7.896;2023-03-08T14:44:57;9.30;99.90
12811;DHT22;6470;47.654;7.896;2023-03-08T14:53:43;9.60;99.90
12811;DHT22;6470;47.654;7.896;2023-03-08T14:56:19;9.70;99.90
12811;DHT22;6470;47.654;7.896;2023-03-08T14:58:48;9.10;99.90
12811;DHT22;6470;47.654;7.896;2023-03-08T15:01:33;9.10;99.90
12811;DHT22;6470;47.654;7.896;2023-03-08T15:04:12;8.70;99.90
12811;DHT22;6470;47.654;7.896;2023-03-08T15:06:40;9.10;99.90
12811;DHT22;6470;47.654;7.896;2023-03-08T15:09:06;9.00;99.90
12811;DHT22;6470;47.654;7.896;2023-03-08T15:11:33;9.30;99.90
12811;DHT22;6470;47.654;7.896;2023-03-08T15:13:59;8.50;99.90
12811;DHT22;6470;47.654;7.896;2023-03-08T15:16:25;9.00;99.90
12811;DHT22;6470;47.654;7.896;2023-03-08T15:18:51;9.70;99.90
12811;DHT22;6470;47.654;7.896;2023-03-08T15:21:22;9.20;99.90
12811;DHT22;6470;47.654;7.896;2023-03-08T15:23:49;9.50;99.90
12811;DHT22;6470;47.654;7.896;2023-03-08T15:26:23;9.30;99.90
12811;DHT22;6470;47.654;7.896;2023-03-08T15:31:16;9.50;99.90
12811;DHT22;6470;47.654;7.896;2023-03-08T15:36:15;9.20;99.90
12811;DHT22;6470;47.654;7.896;2023-03-08T15:38:42;9.50;99.90
12811;DHT22;6470;47.654;7.896;2023-03-08T15:41:14;9.80;99.90
12811;DHT22;6470;47.654;7.896;2023-03-08T15:43:41;9.20;99.90
12811;DHT22;6470;47.654;7.896;2023-03-08T15:46:12;8.90;99.90
12811;DHT22;6470;47.654;7.896;2023-03-08T15:48:38;9.20;99.90
12811;DHT22;6470;47.654;7.896;2023-03-08T15:51:04;9.30;99.90
12811;DHT22;6470;47.654;7.896;2023-03-08T15:53:30;9.90;99.90
12811;DHT22;6470;47.654;7.896;2023-03-08T15:59:18;10.30;99.90
12811;DHT22;6470;47.654;7.896;2023-03-08T16:04:09;10.80;99.90
12811;DHT22;6470;47.654;7.896;2023-03-08T16:06:35;9.50;99.90
12811;DHT22;6470;47.654;7.896;2023-03-08T16:09:01;9.70;99.90
12811;DHT22;6470;47.654;7.896;2023-03-08T16:11:26;10.10;99.90
12811;DHT22;6470;47.654;7.896;2023-03-08T16:13:52;9.80;99.90
12811;DHT22;6470;47.654;7.896;2023-03-08T16:16:19;11.70;99.90
12811;DHT22;6470;47.654;7.896;2023-03-08T16:21:11;10.50;99.90
12811;DHT22;6470;47.654;7.896;2023-03-08T16:23:38;10.70;99.90
12811;DHT22;6470;47.654;7.896;2023-03-08T16:26:13;12.30;99.90
12811;DHT22;6470;47.654;7.896;2023-03-08T16:28:39;12.20;99.90
12811;DHT22;6470;47.654;7.896;2023-03-08T16:31:05;11.60;99.90
12811;DHT22;6470;47.654;7.896;2023-03-08T16:33:33;9.60;99.90
12811;DHT22;6470;47.654;7.896;2023-03-08T16:35:59;10.00;99.90
12811;DHT22;6470;47.654;7.896;2023-03-08T16:38:25;10.40;99.90
12811;DHT22;6470;47.654;7.896;2023-03-08T16:40:51;9.90;99.90
12811;DHT22;6470;47.654;7.896;2023-03-08T16:43:16;10.50;99.90
12811;DHT22;6470;47.654;7.896;2023-03-08T16:45:53;9.90;99.90
12811;DHT22;6470;47.654;7.896;2023-03-08T16:50:51;10.60;99.90
12811;DHT22;6470;47.654;7.896;2023-03-08T16:53:17;10.10;99.90
12811;DHT22;6470;47.654;7.896;2023-03-08T16:55:44;9.90;99.90
12811;DHT22;6470;47.654;7.896;2023-03-08T16:58:10;9.80;99.90
12811;DHT22;6470;47.654;7.896;2023-03-08T17:00:35;9.30;99.90
12811;DHT22;6470;47.654;7.896;2023-03-08T17:03:01;9.50;99.90
12811;DHT22;6470;47.654;7.896;2023-03-08T17:05:27;9.30;99.90
12811;DHT22;6470;47.654;7.896;2023-03-08T17:07:52;8.90;99.90
12811;DHT22;6470;47.654;7.896;2023-03-08T17:10:18;9.20;99.90
12811;DHT22;6470;47.654;7.896;2023-03-08T17:12:44;9.40;99.90
12811;DHT22;6470;47.654;7.896;2023-03-08T17:15:10;9.50;99.90
12811;DHT22;6470;47.654;7.896;2023-03-08T17:17:38;9.50;99.90
12811;DHT22;6470;47.654;7.896;2023-03-08T17:20:05;9.60;99.90
12811;DHT22;6470;47.654;7.896;2023-03-08T17:22:31;9.30;99.90
12811;DHT22;6470;47.654;7.896;2023-03-08T17:25:01;9.30;99.90
12811;DHT22;6470;47.654;7.896;2023-03-08T17:30:48;9.80;99.90
12811;DHT22;6470;47.654;7.896;2023-03-08T17:33:14;8.80;99.90
12811;DHT22;6470;47.654;7.896;2023-03-08T17:35:41;9.40;99.90
12811;DHT22;6470;47.654;7.896;2023-03-08T17:38:07;9.90;99.90
12811;DHT22;6470;47.654;7.896;2023-03-08T17:40:32;9.60;99.90
12811;DHT22;6470;47.654;7.896;2023-03-08T17:42:58;9.00;99.90
12811;DHT22;6470;47.654;7.896;2023-03-08T17:45:27;9.30;99.90
12811;DHT22;6470;47.654;7.896;2023-03-08T17:47:54;9.50;99.90
12811;DHT22;6470;47.654;7.896;2023-03-08T17:50:25;9.40;99.90
12811;DHT22;6470;47.654;7.896;2023-03-08T17:52:51;8.50;99.90
12811;DHT22;6470;47.654;7.896;2023-03-08T17:58:39;9.10;99.90
12811;DHT22;6470;47.654;7.896;2023-03-08T18:01:10;9.30;99.90
12811;DHT22;6470;47.654;7.896;2023-03-08T18:03:37;9.20;99.90
12811;DHT22;6470;47.654;7.896;2023-03-08T18:06:03;9.00;99.90
12811;DHT22;6470;47.654;7.896;2023-03-08T18:08:30;9.20;99.90
12811;DHT22;6470;47.654;7.896;2023-03-08T18:10:56;8.90;99.90
12811;DHT22;6470;47.654;7.896;2023-03-08T18:13:23;9.20;99.90
12811;DHT22;6470;47.654;7.896;2023-03-08T18:15:49;9.30;99.90
12811;DHT22;6470;47.654;7.896;2023-03-08T18:18:15;9.10;99.90
12811;DHT22;6470;47.654;7.896;2023-03-08T18:20:41;9.10;99.90
12811;DHT22;6470;47.654;7.896;2023-03-08T18:23:06;9.50;99.90
12811;DHT22;6470;47.654;7.896;2023-03-08T18:25:33;9.20;99.90
12811;DHT22;6470;47.654;7.896;2023-03-08T18:27:58;8.80;99.90
12811;DHT22;6470;47.654;7.896;2023-03-08T18:30:24;9.10;99.90
12811;DHT22;6470;47.654;7.896;2023-03-08T18:32:50;9.50;99.90
12811;DHT22;6470;47.654;7.896;2023-03-08T18:35:16;8.80;99.90
12811;DHT22;6470;47.654;7.896;2023-03-08T18:37:42;8.30;99.90
12811;DHT22;6470;47.654;7.896;2023-03-08T18:40:08;8.70;99.90
12811;DHT22;6470;47.654;7.896;2023-03-08T18:42:40;8.60;99.90
12811;DHT22;6470;47.654;7.896;2023-03-08T18:45:08;9.10;99.90
12811;DHT22;6470;47.654;7.896;2023-03-08T18:47:34;9.50;99.90
12811;DHT22;6470;47.654;7.896;2023-03-08T18:50:01;9.20;99.90
12811;DHT22;6470;47.654;7.896;2023-03-08T18:52:27;9.30;99.90
12811;DHT22;6470;47.654;7.896;2023-03-08T18:58:14;8.70;99.90
12811;DHT22;6470;47.654;7.896;2023-03-08T19:00:40;9.20;99.90
12811;DHT22;6470;47.654;7.896;2023-03-08T19:03:05;9.60;99.90
12811;DHT22;6470;47.654;7.896;2023-03-08T19:05:34;9.50;99.90
12811;DHT22;6470;47.654;7.896;2023-03-08T19:08:00;8.50;99.90
12811;DHT22;6470;47.654;7.896;2023-03-08T19:10:25;9.10;99.90
12811;DHT22;6470;47.654;7.896;2023-03-08T19:12:51;8.30;99.90
12811;DHT22;6470;47.654;7.896;2023-03-08T19:15:17;9.00;99.90
12811;DHT22;6470;47.654;7.896;2023-03-08T19:17:42;9.20;99.90
12811;DHT22;6470;47.654;7.896;2023-03-08T19:20:09;9.00;99.90
12811;DHT22;6470;47.654;7.896;2023-03-08T19:22:35;8.30;99.90
12811;DHT22;6470;47.654;7.896;2023-03-08T19:27:32;9.40;99.90